sensor_id;sensor_type;location;lat;lon;timestamp;pressure;altitude;pressure_sealevel;temperature;humidity
61359;BME280;47228;46.762;23.598;2023-02-19T00:02:20;96950.09;;;8.92;71.51
61359;BME280;47228;46.762;23.598;2023-02-19T00:04:48;96950.29;;;8.96;70.93
61359;BME280;47228;46.762;23.598;2023-02-19T00:07:16;96955.51;;;8.99;70.59
61359;BME280;47228;46.762;23.598;2023-02-19T00:09:44;96952.41;;;9.02;70.46
61359;BME280;47228;46.762;23.598;2023-02-19T00:12:12;96953.84;;;9.01;70.10
61359;BME280;47228;46.762;23.598;2023-02-19T00:14:40;96955.15;;;9.02;69.74
61359;BME280;47228;46.762;23.598;2023-02-19T00:17:08;96953.80;;;9.03;69.54
61359;BME280;47228;46.762;23.598;2023-02-19T00:19:36;96954.33;;;9.03;69.42
61359;BME280;47228;46.762;23.598;2023-02-19T00:22:04;96950.38;;;9.02;69.56
61359;BME280;47228;46.762;23.598;2023-02-19T00:24:31;96950.49;;;9.01;69.57
61359;BME280;47228;46.762;23.598;2023-02-19T00:26:59;96960.11;;;9.01;69.70
61359;BME280;47228;46.762;23.598;2023-02-19T00:29:27;96963.98;;;8.99;69.72
61359;BME280;47228;46.762;23.598;2023-02-19T00:31:56;96962.80;;;8.99;69.71
61359;BME280;47228;46.762;23.598;2023-02-19T00:34:24;96960.73;;;8.99;69.68
61359;BME280;47228;46.762;23.598;2023-02-19T00:36:52;96957.92;;;8.99;69.51
61359;BME280;47228;46.762;23.598;2023-02-19T00:39:20;96960.86;;;8.98;69.40
61359;BME280;47228;46.762;23.598;2023-02-19T00:41:49;96962.73;;;8.98;69.30
61359;BME280;47228;46.762;23.598;2023-02-19T00:44:17;96965.70;;;9.00;69.05
61359;BME280;47228;46.762;23.598;2023-02-19T00:46:46;96964.31;;;9.01;68.70
61359;BME280;47228;46.762;23.598;2023-02-19T00:49:18;96959.41;;;9.00;68.59
61359;BME280;47228;46.762;23.598;2023-02-19T00:51:47;96961.66;;;9.00;68.48
61359;BME280;47228;46.762;23.598;2023-02-19T00:54:16;96965.77;;;8.97;68.58
61359;BME280;47228;46.762;23.598;2023-02-19T00:56:44;96961.95;;;8.93;68.45
61359;BME280;47228;46.762;23.598;2023-02-19T00:59:12;96958.52;;;8.90;68.43
61359;BME280;47228;46.762;23.598;2023-02-19T01:01:41;96962.98;;;8.87;68.29
61359;BME280;47228;46.762;23.598;2023-02-19T01:04:11;96957.45;;;8.85;68.10
61359;BME280;47228;46.762;23.598;2023-02-19T01:06:39;96959.40;;;8.83;68.06
61359;BME280;47228;46.762;23.598;2023-02-19T01:09:07;96959.48;;;8.81;68.19
61359;BME280;47228;46.762;23.598;2023-02-19T01:11:36;96953.65;;;8.78;67.89
61359;BME280;47228;46.762;23.598;2023-02-19T01:14:04;96953.45;;;8.76;68.10
61359;BME280;47228;46.762;23.598;2023-02-19T01:16:32;96949.54;;;8.72;68.04
61359;BME280;47228;46.762;23.598;2023-02-19T01:19:00;96945.28;;;8.66;68.28
61359;BME280;47228;46.762;23.598;2023-02-19T01:21:29;96949.11;;;8.63;68.30
61359;BME280;47228;46.762;23.598;2023-02-19T01:23:58;96948.36;;;8.59;68.52
61359;BME280;47228;46.762;23.598;2023-02-19T01:26:29;96954.14;;;8.57;68.43
61359;BME280;47228;46.762;23.598;2023-02-19T01:28:59;96951.77;;;8.55;68.35
61359;BME280;47228;46.762;23.598;2023-02-19T01:31:28;96948.66;;;8.51;68.54
61359;BME280;47228;46.762;23.598;2023-02-19T01:33:58;96947.41;;;8.49;68.57
61359;BME280;47228;46.762;23.598;2023-02-19T01:36:29;96947.20;;;8.46;68.66
61359;BME280;47228;46.762;23.598;2023-02-19T01:38:59;96946.60;;;8.45;68.33
61359;BME280;47228;46.762;23.598;2023-02-19T01:41:27;96943.05;;;8.47;68.63
61359;BME280;47228;46.762;23.598;2023-02-19T01:46:45;96942.91;;;8.42;68.80
61359;BME280;47228;46.762;23.598;2023-02-19T01:49:23;96944.17;;;8.39;68.78
61359;BME280;47228;46.762;23.598;2023-02-19T01:52:06;96946.67;;;8.36;68.79
61359;BME280;47228;46.762;23.598;2023-02-19T01:54:40;96948.43;;;8.34;68.90
61359;BME280;47228;46.762;23.598;2023-02-19T01:57:17;96949.36;;;8.32;68.95
61359;BME280;47228;46.762;23.598;2023-02-19T01:59:48;96956.52;;;8.30;68.82
61359;BME280;47228;46.762;23.598;2023-02-19T02:02:17;96958.91;;;8.27;69.00
61359;BME280;47228;46.762;23.598;2023-02-19T02:04:45;96963.17;;;8.24;68.95
61359;BME280;47228;46.762;23.598;2023-02-19T02:07:13;96965.42;;;8.22;69.06
61359;BME280;47228;46.762;23.598;2023-02-19T02:10:01;96963.77;;;8.19;69.04
61359;BME280;47228;46.762;23.598;2023-02-19T02:12:49;96971.24;;;8.16;69.11
61359;BME280;47228;46.762;23.598;2023-02-19T02:15:18;96973.57;;;8.16;69.16
61359;BME280;47228;46.762;23.598;2023-02-19T02:18:21;96967.58;;;8.16;68.86
61359;BME280;47228;46.762;23.598;2023-02-19T02:24:15;96980.27;;;8.13;69.20
61359;BME280;47228;46.762;23.598;2023-02-19T02:35:09;97003.14;;;7.96;69.39
61359;BME280;47228;46.762;23.598;2023-02-19T02:37:41;97009.80;;;7.93;69.48
61359;BME280;47228;46.762;23.598;2023-02-19T02:40:11;97014.20;;;7.89;69.58
61359;BME280;47228;46.762;23.598;2023-02-19T02:42:39;97012.76;;;7.85;69.76
61359;BME280;47228;46.762;23.598;2023-02-19T02:45:26;97019.89;;;7.81;69.73
61359;BME280;47228;46.762;23.598;2023-02-19T02:50:54;97026.05;;;7.76;70.00
61359;BME280;47228;46.762;23.598;2023-02-19T02:53:27;97023.94;;;7.73;69.90
61359;BME280;47228;46.762;23.598;2023-02-19T02:56:17;97027.58;;;7.69;69.87
61359;BME280;47228;46.762;23.598;2023-02-19T02:58:47;97026.46;;;7.65;69.95
61359;BME280;47228;46.762;23.598;2023-02-19T03:01:36;97025.34;;;7.61;69.92
61359;BME280;47228;46.762;23.598;2023-02-19T03:04:51;97025.41;;;7.58;70.02
61359;BME280;47228;46.762;23.598;2023-02-19T03:10:15;97028.54;;;7.51;70.14
61359;BME280;47228;46.762;23.598;2023-02-19T03:12:45;97026.65;;;7.48;70.15
61359;BME280;47228;46.762;23.598;2023-02-19T03:15:35;97028.66;;;7.44;70.16
61359;BME280;47228;46.762;23.598;2023-02-19T03:18:25;97029.40;;;7.40;70.02
61359;BME280;47228;46.762;23.598;2023-02-19T03:21:14;97035.11;;;7.38;70.19
61359;BME280;47228;46.762;23.598;2023-02-19T03:23:44;97039.30;;;7.36;70.03
61359;BME280;47228;46.762;23.598;2023-02-19T03:26:32;97045.33;;;7.35;70.07
61359;BME280;47228;46.762;23.598;2023-02-19T03:29:02;97052.85;;;7.34;69.97
61359;BME280;47228;46.762;23.598;2023-02-19T03:31:58;97064.52;;;7.34;70.10
61359;BME280;47228;46.762;23.598;2023-02-19T03:34:33;97069.51;;;7.33;69.88
61359;BME280;47228;46.762;23.598;2023-02-19T03:37:19;97075.43;;;7.32;69.79
61359;BME280;47228;46.762;23.598;2023-02-19T03:39:52;97083.95;;;7.32;69.81
61359;BME280;47228;46.762;23.598;2023-02-19T03:47:47;97095.92;;;7.29;69.82
61359;BME280;47228;46.762;23.598;2023-02-19T03:53:11;97108.04;;;7.25;69.72
61359;BME280;47228;46.762;23.598;2023-02-19T03:55:57;97113.39;;;7.22;69.81
61359;BME280;47228;46.762;23.598;2023-02-19T03:58:46;97114.78;;;7.20;69.60
61359;BME280;47228;46.762;23.598;2023-02-19T04:01:33;97120.26;;;7.15;69.56
61359;BME280;47228;46.762;23.598;2023-02-19T04:04:31;97120.10;;;7.12;69.80
61359;BME280;47228;46.762;23.598;2023-02-19T04:07:00;97124.15;;;7.08;69.69
61359;BME280;47228;46.762;23.598;2023-02-19T04:09:33;97124.43;;;7.04;69.82
61359;BME280;47228;46.762;23.598;2023-02-19T04:12:04;97125.98;;;7.00;69.86
61359;BME280;47228;46.762;23.598;2023-02-19T04:17:24;97122.92;;;6.88;69.47
61359;BME280;47228;46.762;23.598;2023-02-19T04:19:55;97120.81;;;6.81;69.59
61359;BME280;47228;46.762;23.598;2023-02-19T04:22:24;97122.20;;;6.76;70.03
61359;BME280;47228;46.762;23.598;2023-02-19T04:24:53;97125.27;;;6.71;70.38
61359;BME280;47228;46.762;23.598;2023-02-19T04:27:22;97125.67;;;6.67;70.32
61359;BME280;47228;46.762;23.598;2023-02-19T04:29:50;97124.77;;;6.64;70.50
61359;BME280;47228;46.762;23.598;2023-02-19T04:32:18;97122.29;;;6.63;70.51
61359;BME280;47228;46.762;23.598;2023-02-19T04:34:46;97126.29;;;6.60;70.77
61359;BME280;47228;46.762;23.598;2023-02-19T04:37:14;97126.70;;;6.58;70.87
61359;BME280;47228;46.762;23.598;2023-02-19T04:39:42;97131.57;;;6.55;71.03
61359;BME280;47228;46.762;23.598;2023-02-19T04:42:10;97136.04;;;6.55;71.03
61359;BME280;47228;46.762;23.598;2023-02-19T04:44:38;97137.95;;;6.55;71.03
61359;BME280;47228;46.762;23.598;2023-02-19T04:47:06;97142.80;;;6.56;71.11
61359;BME280;47228;46.762;23.598;2023-02-19T04:49:33;97141.02;;;6.56;71.07
61359;BME280;47228;46.762;23.598;2023-02-19T04:52:01;97138.40;;;6.56;71.22
61359;BME280;47228;46.762;23.598;2023-02-19T04:54:29;97138.00;;;6.56;71.22
61359;BME280;47228;46.762;23.598;2023-02-19T04:56:57;97143.63;;;6.58;71.30
61359;BME280;47228;46.762;23.598;2023-02-19T04:59:25;97140.91;;;6.58;71.12
61359;BME280;47228;46.762;23.598;2023-02-19T05:01:53;97138.27;;;6.58;70.94
61359;BME280;47228;46.762;23.598;2023-02-19T05:04:21;97139.27;;;6.57;71.08
61359;BME280;47228;46.762;23.598;2023-02-19T05:06:50;97141.17;;;6.56;71.09
61359;BME280;47228;46.762;23.598;2023-02-19T05:09:18;97141.09;;;6.54;71.05
61359;BME280;47228;46.762;23.598;2023-02-19T05:11:46;97133.77;;;6.52;70.94
61359;BME280;47228;46.762;23.598;2023-02-19T05:14:14;97131.21;;;6.49;71.01
61359;BME280;47228;46.762;23.598;2023-02-19T05:16:43;97130.48;;;6.50;70.99
61359;BME280;47228;46.762;23.598;2023-02-19T05:19:11;97132.09;;;6.48;71.00
61359;BME280;47228;46.762;23.598;2023-02-19T05:21:40;97129.79;;;6.47;71.05
61359;BME280;47228;46.762;23.598;2023-02-19T05:24:08;97130.48;;;6.47;71.00
61359;BME280;47228;46.762;23.598;2023-02-19T05:26:36;97132.92;;;6.47;71.14
61359;BME280;47228;46.762;23.598;2023-02-19T05:29:04;97131.69;;;6.49;71.11
61359;BME280;47228;46.762;23.598;2023-02-19T05:31:32;97134.30;;;6.50;71.25
61359;BME280;47228;46.762;23.598;2023-02-19T05:34:00;97135.84;;;6.52;71.26
61359;BME280;47228;46.762;23.598;2023-02-19T05:36:28;97133.95;;;6.56;71.36
61359;BME280;47228;46.762;23.598;2023-02-19T05:38:57;97137.05;;;6.62;71.19
61359;BME280;47228;46.762;23.598;2023-02-19T05:41:27;97139.33;;;6.67;71.09
61359;BME280;47228;46.762;23.598;2023-02-19T05:43:56;97138.23;;;6.74;71.16
61359;BME280;47228;46.762;23.598;2023-02-19T05:46:27;97135.16;;;6.79;70.92
61359;BME280;47228;46.762;23.598;2023-02-19T05:48:56;97125.79;;;6.84;70.88
61359;BME280;47228;46.762;23.598;2023-02-19T05:51:26;97123.73;;;6.88;70.82
61359;BME280;47228;46.762;23.598;2023-02-19T05:53:55;97121.22;;;6.91;70.74
61359;BME280;47228;46.762;23.598;2023-02-19T05:56:32;97116.73;;;6.93;70.60
61359;BME280;47228;46.762;23.598;2023-02-19T05:59:04;97117.56;;;6.95;70.29
61359;BME280;47228;46.762;23.598;2023-02-19T06:01:34;97109.46;;;6.98;70.36
61359;BME280;47228;46.762;23.598;2023-02-19T06:04:02;97102.80;;;7.02;70.41
61359;BME280;47228;46.762;23.598;2023-02-19T06:06:30;97098.70;;;7.07;70.34
61359;BME280;47228;46.762;23.598;2023-02-19T06:08:58;97095.02;;;7.11;70.45
61359;BME280;47228;46.762;23.598;2023-02-19T06:11:28;97092.30;;;7.15;70.36
61359;BME280;47228;46.762;23.598;2023-02-19T06:13:56;97090.46;;;7.19;70.21
61359;BME280;47228;46.762;23.598;2023-02-19T06:16:24;97087.12;;;7.21;70.10
61359;BME280;47228;46.762;23.598;2023-02-19T06:18:52;97079.52;;;7.23;70.15
61359;BME280;47228;46.762;23.598;2023-02-19T06:21:20;97069.38;;;7.24;70.11
61359;BME280;47228;46.762;23.598;2023-02-19T06:23:47;97068.90;;;7.25;70.08
61359;BME280;47228;46.762;23.598;2023-02-19T06:26:21;97067.36;;;7.25;69.86
61359;BME280;47228;46.762;23.598;2023-02-19T06:28:51;97071.38;;;7.23;69.93
61359;BME280;47228;46.762;23.598;2023-02-19T06:31:20;97079.05;;;7.23;69.88
61359;BME280;47228;46.762;23.598;2023-02-19T06:33:48;97074.98;;;7.23;69.99
61359;BME280;47228;46.762;23.598;2023-02-19T06:36:19;97074.52;;;7.25;69.99
61359;BME280;47228;46.762;23.598;2023-02-19T06:38:47;97072.75;;;7.28;70.04
61359;BME280;47228;46.762;23.598;2023-02-19T06:41:15;97074.05;;;7.32;70.18
61359;BME280;47228;46.762;23.598;2023-02-19T06:43:43;97069.65;;;7.36;70.16
61359;BME280;47228;46.762;23.598;2023-02-19T06:46:13;97069.97;;;7.40;69.96
61359;BME280;47228;46.762;23.598;2023-02-19T06:48:43;97071.89;;;7.41;70.19
61359;BME280;47228;46.762;23.598;2023-02-19T06:51:13;97075.73;;;7.43;70.21
61359;BME280;47228;46.762;23.598;2023-02-19T06:53:41;97078.80;;;7.44;69.96
61359;BME280;47228;46.762;23.598;2023-02-19T06:56:39;97083.58;;;7.44;69.88
61359;BME280;47228;46.762;23.598;2023-02-19T06:59:11;97080.73;;;7.44;69.90
61359;BME280;47228;46.762;23.598;2023-02-19T07:01:39;97078.94;;;7.44;69.86
61359;BME280;47228;46.762;23.598;2023-02-19T07:04:07;97084.45;;;7.46;69.70
61359;BME280;47228;46.762;23.598;2023-02-19T07:06:36;97077.77;;;7.49;69.59
61359;BME280;47228;46.762;23.598;2023-02-19T07:09:06;97078.25;;;7.54;69.47
61359;BME280;47228;46.762;23.598;2023-02-19T07:11:36;97067.80;;;7.57;69.42
61359;BME280;47228;46.762;23.598;2023-02-19T07:14:07;97064.17;;;7.61;69.13
61359;BME280;47228;46.762;23.598;2023-02-19T07:16:40;97059.67;;;7.65;69.15
61359;BME280;47228;46.762;23.598;2023-02-19T07:19:09;97061.78;;;7.69;69.28
61359;BME280;47228;46.762;23.598;2023-02-19T07:21:40;97062.23;;;7.73;69.06
61359;BME280;47228;46.762;23.598;2023-02-19T07:24:09;97067.41;;;7.76;68.80
61359;BME280;47228;46.762;23.598;2023-02-19T07:26:37;97067.39;;;7.79;68.63
61359;BME280;47228;46.762;23.598;2023-02-19T07:29:05;97068.98;;;7.82;68.24
61359;BME280;47228;46.762;23.598;2023-02-19T07:31:35;97061.81;;;7.83;67.62
61359;BME280;47228;46.762;23.598;2023-02-19T07:34:03;97067.31;;;7.86;67.55
61359;BME280;47228;46.762;23.598;2023-02-19T07:36:31;97070.14;;;7.88;66.88
61359;BME280;47228;46.762;23.598;2023-02-19T07:38:59;97073.17;;;7.91;67.21
61359;BME280;47228;46.762;23.598;2023-02-19T07:41:27;97067.19;;;7.95;67.42
61359;BME280;47228;46.762;23.598;2023-02-19T07:43:55;97065.34;;;8.02;67.19
61359;BME280;47228;46.762;23.598;2023-02-19T07:46:23;97067.89;;;8.08;66.76
61359;BME280;47228;46.762;23.598;2023-02-19T07:48:51;97065.17;;;8.14;66.49
61359;BME280;47228;46.762;23.598;2023-02-19T07:51:20;97063.89;;;8.23;66.34
61359;BME280;47228;46.762;23.598;2023-02-19T07:53:48;97062.61;;;8.32;66.67
61359;BME280;47228;46.762;23.598;2023-02-19T07:56:19;97063.16;;;8.42;66.76
61359;BME280;47228;46.762;23.598;2023-02-19T07:58:48;97056.35;;;8.52;65.93
61359;BME280;47228;46.762;23.598;2023-02-19T08:01:18;97052.92;;;8.61;65.37
61359;BME280;47228;46.762;23.598;2023-02-19T08:04:07;97054.95;;;8.73;65.16
61359;BME280;47228;46.762;23.598;2023-02-19T08:06:35;97055.31;;;8.83;64.75
61359;BME280;47228;46.762;23.598;2023-02-19T08:09:04;97055.83;;;8.91;64.67
61359;BME280;47228;46.762;23.598;2023-02-19T08:11:32;97047.92;;;8.96;63.95
61359;BME280;47228;46.762;23.598;2023-02-19T08:14:22;97047.29;;;9.02;63.65
61359;BME280;47228;46.762;23.598;2023-02-19T08:16:51;97047.39;;;9.09;64.09
61359;BME280;47228;46.762;23.598;2023-02-19T08:19:20;97044.17;;;9.14;64.25
61359;BME280;47228;46.762;23.598;2023-02-19T08:21:48;97038.48;;;9.24;64.44
61359;BME280;47228;46.762;23.598;2023-02-19T08:24:17;97039.09;;;9.37;64.15
61359;BME280;47228;46.762;23.598;2023-02-19T08:26:45;97031.31;;;9.51;64.03
61359;BME280;47228;46.762;23.598;2023-02-19T08:29:13;97026.01;;;9.63;63.11
61359;BME280;47228;46.762;23.598;2023-02-19T08:31:41;97021.67;;;9.73;62.67
61359;BME280;47228;46.762;23.598;2023-02-19T08:34:09;97018.80;;;9.83;62.50
61359;BME280;47228;46.762;23.598;2023-02-19T08:36:37;97019.17;;;9.94;62.43
61359;BME280;47228;46.762;23.598;2023-02-19T08:39:05;97015.33;;;10.05;61.74
61359;BME280;47228;46.762;23.598;2023-02-19T08:41:33;97011.99;;;10.13;61.71
61359;BME280;47228;46.762;23.598;2023-02-19T08:44:01;97006.86;;;10.19;61.42
61359;BME280;47228;46.762;23.598;2023-02-19T08:46:29;97010.34;;;10.23;60.74
61359;BME280;47228;46.762;23.598;2023-02-19T08:49:00;97005.80;;;10.23;60.52
61359;BME280;47228;46.762;23.598;2023-02-19T08:51:27;97002.77;;;10.22;60.56
61359;BME280;47228;46.762;23.598;2023-02-19T08:53:55;97002.66;;;10.19;59.46
61359;BME280;47228;46.762;23.598;2023-02-19T08:56:23;96996.85;;;10.12;58.93
61359;BME280;47228;46.762;23.598;2023-02-19T08:58:52;96994.61;;;10.07;59.47
61359;BME280;47228;46.762;23.598;2023-02-19T09:01:20;96990.42;;;10.06;59.74
61359;BME280;47228;46.762;23.598;2023-02-19T09:03:48;96985.15;;;10.07;59.62
61359;BME280;47228;46.762;23.598;2023-02-19T09:06:18;96980.13;;;10.09;59.75
61359;BME280;47228;46.762;23.598;2023-02-19T09:08:46;96975.70;;;10.13;59.95
61359;BME280;47228;46.762;23.598;2023-02-19T09:11:15;96976.73;;;10.19;59.74
61359;BME280;47228;46.762;23.598;2023-02-19T09:13:43;96973.72;;;10.28;60.05
61359;BME280;47228;46.762;23.598;2023-02-19T09:16:11;96979.40;;;10.38;59.84
61359;BME280;47228;46.762;23.598;2023-02-19T09:18:39;96980.82;;;10.47;59.24
61359;BME280;47228;46.762;23.598;2023-02-19T09:21:07;96984.36;;;10.56;58.33
61359;BME280;47228;46.762;23.598;2023-02-19T09:23:36;96988.29;;;10.65;57.10
61359;BME280;47228;46.762;23.598;2023-02-19T09:26:05;96989.56;;;10.77;56.07
61359;BME280;47228;46.762;23.598;2023-02-19T09:28:36;96992.14;;;10.90;55.85
61359;BME280;47228;46.762;23.598;2023-02-19T09:31:08;97000.59;;;11.06;56.00
61359;BME280;47228;46.762;23.598;2023-02-19T09:33:45;96993.05;;;11.23;56.65
61359;BME280;47228;46.762;23.598;2023-02-19T09:36:15;96990.98;;;11.41;56.21
61359;BME280;47228;46.762;23.598;2023-02-19T09:38:44;96986.61;;;11.56;54.71
61359;BME280;47228;46.762;23.598;2023-02-19T09:43:52;96984.73;;;11.85;54.94
61359;BME280;47228;46.762;23.598;2023-02-19T09:46:27;96982.70;;;11.96;55.09
61359;BME280;47228;46.762;23.598;2023-02-19T09:49:05;96980.17;;;12.04;53.40
61359;BME280;47228;46.762;23.598;2023-02-19T09:51:36;96985.63;;;12.09;53.18
61359;BME280;47228;46.762;23.598;2023-02-19T09:54:08;96976.29;;;12.13;52.07
61359;BME280;47228;46.762;23.598;2023-02-19T09:56:37;96968.63;;;12.13;50.96
61359;BME280;47228;46.762;23.598;2023-02-19T09:59:13;96974.23;;;12.10;50.22
61359;BME280;47228;46.762;23.598;2023-02-19T10:01:47;96975.20;;;12.07;50.39
61359;BME280;47228;46.762;23.598;2023-02-19T10:04:18;96972.43;;;11.99;49.47
61359;BME280;47228;46.762;23.598;2023-02-19T10:06:47;96980.28;;;11.88;49.62
61359;BME280;47228;46.762;23.598;2023-02-19T10:09:24;96981.19;;;11.80;49.94
61359;BME280;47228;46.762;23.598;2023-02-19T10:11:55;96982.42;;;11.75;49.64
61359;BME280;47228;46.762;23.598;2023-02-19T10:14:34;96981.54;;;11.74;49.94
61359;BME280;47228;46.762;23.598;2023-02-19T10:17:05;96978.26;;;11.74;48.87
61359;BME280;47228;46.762;23.598;2023-02-19T10:19:34;96971.78;;;11.75;48.31
61359;BME280;47228;46.762;23.598;2023-02-19T10:22:03;96961.41;;;11.76;48.60
61359;BME280;47228;46.762;23.598;2023-02-19T10:24:31;96962.91;;;11.79;49.35
61359;BME280;47228;46.762;23.598;2023-02-19T10:26:59;96962.03;;;11.84;49.68
61359;BME280;47228;46.762;23.598;2023-02-19T10:29:27;96947.87;;;11.91;49.96
61359;BME280;47228;46.762;23.598;2023-02-19T10:32:31;96939.19;;;11.95;49.55
61359;BME280;47228;46.762;23.598;2023-02-19T10:35:14;96931.92;;;11.97;49.10
61359;BME280;47228;46.762;23.598;2023-02-19T10:37:48;96934.33;;;11.94;49.25
61359;BME280;47228;46.762;23.598;2023-02-19T10:40:19;96936.52;;;11.93;50.19
61359;BME280;47228;46.762;23.598;2023-02-19T10:43:00;96931.17;;;11.94;50.20
61359;BME280;47228;46.762;23.598;2023-02-19T10:45:39;96931.20;;;11.96;50.63
61359;BME280;47228;46.762;23.598;2023-02-19T10:48:21;96929.30;;;11.97;49.52
61359;BME280;47228;46.762;23.598;2023-02-19T10:50:52;96928.63;;;11.99;49.98
61359;BME280;47228;46.762;23.598;2023-02-19T10:53:41;96930.30;;;12.08;48.85
61359;BME280;47228;46.762;23.598;2023-02-19T10:56:32;96920.92;;;12.15;47.93
61359;BME280;47228;46.762;23.598;2023-02-19T10:59:27;96910.21;;;12.24;47.40
61359;BME280;47228;46.762;23.598;2023-02-19T11:02:08;96907.72;;;12.33;48.11
61359;BME280;47228;46.762;23.598;2023-02-19T11:07:53;96908.49;;;12.32;47.57
61359;BME280;47228;46.762;23.598;2023-02-19T11:10:29;96919.62;;;12.20;47.59
61359;BME280;47228;46.762;23.598;2023-02-19T11:13:00;96920.09;;;12.10;48.33
61359;BME280;47228;46.762;23.598;2023-02-19T11:15:32;96930.77;;;11.97;48.83
61359;BME280;47228;46.762;23.598;2023-02-19T11:18:18;96923.53;;;11.86;48.95
61359;BME280;47228;46.762;23.598;2023-02-19T11:25:58;96908.45;;;11.62;50.48
61359;BME280;47228;46.762;23.598;2023-02-19T11:28:35;96899.30;;;11.60;50.93
61359;BME280;47228;46.762;23.598;2023-02-19T11:31:29;96904.96;;;11.57;51.22
61359;BME280;47228;46.762;23.598;2023-02-19T11:34:24;96905.34;;;11.60;51.66
61359;BME280;47228;46.762;23.598;2023-02-19T11:37:14;96897.08;;;11.64;52.09
61359;BME280;47228;46.762;23.598;2023-02-19T11:39:45;96896.15;;;11.67;52.16
61359;BME280;47228;46.762;23.598;2023-02-19T11:45:28;96884.61;;;11.67;52.95
61359;BME280;47228;46.762;23.598;2023-02-19T11:48:04;96886.98;;;11.74;53.22
61359;BME280;47228;46.762;23.598;2023-02-19T11:53:28;96882.07;;;11.81;53.26
61359;BME280;47228;46.762;23.598;2023-02-19T12:36:51;96860.09;;;11.85;49.99
61359;BME280;47228;46.762;23.598;2023-02-19T12:42:10;96862.42;;;11.84;50.01
61359;BME280;47228;46.762;23.598;2023-02-19T12:44:51;96866.61;;;11.84;49.79
61359;BME280;47228;46.762;23.598;2023-02-19T12:47:28;96862.63;;;11.78;49.39
61359;BME280;47228;46.762;23.598;2023-02-19T12:52:35;96879.11;;;11.63;49.97
61359;BME280;47228;46.762;23.598;2023-02-19T12:55:26;96885.44;;;11.55;50.32
61359;BME280;47228;46.762;23.598;2023-02-19T12:57:58;96888.34;;;11.44;50.68
61359;BME280;47228;46.762;23.598;2023-02-19T13:00:34;96892.04;;;11.33;51.90
61359;BME280;47228;46.762;23.598;2023-02-19T13:03:16;96893.90;;;11.27;52.69
61359;BME280;47228;46.762;23.598;2023-02-19T13:08:47;96889.25;;;11.02;55.10
61359;BME280;47228;46.762;23.598;2023-02-19T13:11:58;96892.39;;;10.92;55.99
61359;BME280;47228;46.762;23.598;2023-02-19T13:14:36;96890.36;;;10.81;56.84
61359;BME280;47228;46.762;23.598;2023-02-19T13:19:52;96888.89;;;10.63;58.23
61359;BME280;47228;46.762;23.598;2023-02-19T13:28:56;96886.02;;;10.24;59.95
61359;BME280;47228;46.762;23.598;2023-02-19T13:36:55;96878.27;;;9.90;61.62
61359;BME280;47228;46.762;23.598;2023-02-19T13:39:24;96869.09;;;9.82;61.96
61359;BME280;47228;46.762;23.598;2023-02-19T13:41:55;96870.00;;;9.80;62.03
61359;BME280;47228;46.762;23.598;2023-02-19T13:44:29;96867.95;;;9.78;61.88
61359;BME280;47228;46.762;23.598;2023-02-19T13:46:58;96858.41;;;9.76;61.74
61359;BME280;47228;46.762;23.598;2023-02-19T14:01:09;96832.31;;;9.72;62.31
61359;BME280;47228;46.762;23.598;2023-02-19T14:03:44;96836.02;;;9.67;62.62
61359;BME280;47228;46.762;23.598;2023-02-19T14:06:13;96837.98;;;9.64;62.66
61359;BME280;47228;46.762;23.598;2023-02-19T14:09:01;96848.67;;;9.62;63.06
61359;BME280;47228;46.762;23.598;2023-02-19T14:25:37;96819.89;;;9.62;63.97
61359;BME280;47228;46.762;23.598;2023-02-19T14:33:23;96815.27;;;9.80;64.48
61359;BME280;47228;46.762;23.598;2023-02-19T14:39:16;96809.83;;;9.85;64.35
61359;BME280;47228;46.762;23.598;2023-02-19T14:41:48;96805.04;;;9.87;63.97
61359;BME280;47228;46.762;23.598;2023-02-19T14:44:22;96800.42;;;9.88;63.82
61359;BME280;47228;46.762;23.598;2023-02-19T14:47:05;96796.05;;;9.89;63.37
61359;BME280;47228;46.762;23.598;2023-02-19T14:49:41;96788.08;;;9.90;63.21
61359;BME280;47228;46.762;23.598;2023-02-19T14:52:26;96777.02;;;9.91;62.83
61359;BME280;47228;46.762;23.598;2023-02-19T14:57:38;96768.43;;;9.94;62.36
61359;BME280;47228;46.762;23.598;2023-02-19T15:00:37;96765.44;;;9.95;62.31
61359;BME280;47228;46.762;23.598;2023-02-19T15:05:55;96759.08;;;9.95;62.29
61359;BME280;47228;46.762;23.598;2023-02-19T15:08:31;96753.61;;;9.95;62.44
61359;BME280;47228;46.762;23.598;2023-02-19T15:11:02;96748.79;;;9.95;62.65
61359;BME280;47228;46.762;23.598;2023-02-19T15:13:31;96744.91;;;9.95;62.43
61359;BME280;47228;46.762;23.598;2023-02-19T15:15:59;96740.88;;;9.97;62.45
61359;BME280;47228;46.762;23.598;2023-02-19T15:18:36;96734.08;;;9.99;62.06
61359;BME280;47228;46.762;23.598;2023-02-19T15:21:05;96728.23;;;10.00;62.17
61359;BME280;47228;46.762;23.598;2023-02-19T15:23:46;96727.41;;;10.01;62.28
61359;BME280;47228;46.762;23.598;2023-02-19T15:26:33;96719.24;;;10.01;62.36
61359;BME280;47228;46.762;23.598;2023-02-19T15:29:25;96721.25;;;9.99;62.13
61359;BME280;47228;46.762;23.598;2023-02-19T15:31:56;96726.74;;;9.97;62.01
61359;BME280;47228;46.762;23.598;2023-02-19T15:34:27;96738.34;;;9.96;62.36
61359;BME280;47228;46.762;23.598;2023-02-19T15:36:59;96747.73;;;9.96;62.47
61359;BME280;47228;46.762;23.598;2023-02-19T15:39:43;96756.59;;;9.96;62.54
61359;BME280;47228;46.762;23.598;2023-02-19T15:42:21;96779.66;;;9.94;63.23
61359;BME280;47228;46.762;23.598;2023-02-19T15:45:43;96801.21;;;9.91;64.42
61359;BME280;47228;46.762;23.598;2023-02-19T15:48:20;96808.55;;;9.84;65.53
61359;BME280;47228;46.762;23.598;2023-02-19T15:50:56;96816.94;;;9.73;66.14
61359;BME280;47228;46.762;23.598;2023-02-19T15:53:37;96822.65;;;9.62;66.82
61359;BME280;47228;46.762;23.598;2023-02-19T15:56:18;96821.79;;;9.53;67.86
61359;BME280;47228;46.762;23.598;2023-02-19T16:01:30;96825.44;;;9.35;69.08
61359;BME280;47228;46.762;23.598;2023-02-19T16:04:02;96818.98;;;9.22;69.79